Time;durP1;ratioP1;P1;durP2;ratioP2;P2;SDS_P1;SDS_P2;PMS_P1;PMS_P2;Temp;Humidity;BMP_temperature;BMP_pressure;BME280_temperature;BME280_humidity;BME280_pressure;Samples;Min_cycle;Max_cycle;Signal;HPM_P1;HPM_P2
2023/07/06 00:00:52;;;;;;;;;;;;;;;;;;5035164;28;19990;-67
2023/07/06 00:03:18;;;;;;;;;;;;;;;;;;5035060;28;20569;-67
2023/07/06 00:05:44;;;;;;;;;;;;;;;;;;5034571;28;19990;-67
2023/07/06 00:08:11;;;;;;;;;;;;;;;;;;5034746;28;19956;-67
2023/07/06 00:10:39;;;;;;;;;;;;;;;;;;5034724;28;20038;-67
2023/07/06 00:13:05;;;;;;;;;;;;;;;;;;5035462;28;19959;-67
2023/07/06 00:15:31;;;;;;;;;;;;;;;;;;5034580;28;19955;-67
2023/07/06 00:17:59;;;;;;;;;;;;;;;;;;5035137;28;19962;-67
2023/07/06 00:20:25;;;;;;;;;;;;;;;;;;5034543;28;19954;-67
2023/07/06 00:22:50;;;;;;;;;;;;;;;;;;5034537;28;19954;-67
2023/07/06 00:25:16;;;;;;;;;;;;;;;;;;5034715;28;19962;-67
2023/07/06 00:27:43;;;;;;;;;;;;;;;;;;5034324;28;20454;-68
2023/07/06 00:30:15;;;;;;;;;;;;;;;;;;5034592;28;19965;-67
2023/07/06 00:32:41;;;;;;;;;;;;;;;;;;5034303;28;20050;-67
2023/07/06 00:35:10;;;;;;;;;;;;;;;;;;5034834;28;19994;-68
2023/07/06 00:37:37;;;;;;;;;;;;;;;;;;5034211;28;19956;-67
2023/07/06 00:40:08;;;;;;;;;;;;;;;;;;5034201;28;19954;-68
2023/07/06 00:42:33;;;;;;;;;;;;;;;;;;5034146;28;19951;-68
2023/07/06 00:44:59;;;;;;;;;;;;;;;;;;5034064;28;20417;-67
2023/07/06 00:47:25;;;;;;;;;;;;;;;;;;5034257;28;19982;-67
2023/07/06 00:49:51;;;;;;;;;;;;;;;;;;5034286;28;19963;-68
2023/07/06 00:52:17;;;;;;;;;;;;;;;;;;5034566;28;19955;-67
2023/07/06 00:54:43;;;;;;;;;;;;;;;;;;5034233;28;19960;-67
2023/07/06 00:57:09;;;;;;;;;;;;;;;;;;5033946;28;19967;-67
2023/07/06 00:59:35;;;;;;;;;;;;;;;;;;5033891;28;19987;-67
2023/07/06 01:02:01;;;;;;;;;;;;;;;;;;5033584;28;19978;-67
2023/07/06 01:04:26;;;;;;;;;;;;;;;;;;5033273;28;19983;-67
2023/07/06 01:06:52;;;;;;;;;;;;;;;;;;5033733;28;19979;-67
2023/07/06 01:09:18;;;;;;;;;;;;;;;;;;5034323;28;20314;-67
2023/07/06 01:11:44;;;;;;;;;;;;;;;;;;5034303;28;19955;-67
2023/07/06 01:14:12;;;;;;;;;;;;;;;;;;5034035;28;20025;-67
2023/07/06 01:16:38;;;;;;;;;;;;;;;;;;5033716;28;19955;-67
2023/07/06 01:19:04;;;;;;;;;;;;;;;;;;5033691;28;20005;-68
2023/07/06 01:21:31;;;;;;;;;;;;;;;;;;5033669;28;19955;-67
2023/07/06 01:23:56;;;;;;;;;;;;;;;;;;5048978;28;20419;-67
2023/07/06 01:26:22;;;;;;;;;;;;;;;;;;5033528;28;20081;-67
2023/07/06 01:28:50;;;;;;;;;;;;;;;;;;5033601;28;20033;-67
2023/07/06 01:31:16;;;;;;;;;;;;;;;;;;5033805;28;19959;-68
2023/07/06 01:33:42;;;;;;;;;;;;;;;;;;5033589;28;19955;-68
2023/07/06 01:36:08;;;;;;;;;;;;;;;;;;5033516;28;19962;-67
2023/07/06 01:38:34;;;;;;;;;;;;;;;;;;5033742;28;19955;-67
2023/07/06 01:41:01;;;;;;;;;;;;;;;;;;5033500;28;20408;-67
2023/07/06 01:43:27;;;;;;;;;;;;;;;;;;5034058;28;19955;-67
2023/07/06 01:45:53;;;;;;;;;;;;;;;;;;5033347;28;19974;-68
2023/07/06 01:48:20;;;;;;;;;;;;;;;;;;5033984;28;19962;-67
2023/07/06 01:50:48;;;;;;;;;;;;;;;;;;5033394;28;20009;-67
2023/07/06 01:53:14;;;;;;;;;;;;;;;;;;5033383;28;19954;-67
2023/07/06 01:55:41;;;;;;;;;;;;;;;;;;5033628;28;19962;-68
2023/07/06 01:58:07;;;;;;;;;;;;;;;;;;5033341;28;19955;-67
2023/07/06 02:00:32;;;;;;;;;;;;;;;;;;5033317;28;19962;-67
2023/07/06 02:02:58;;;;;;;;;;;;;;;;;;5033199;28;20002;-67
2023/07/06 02:05:24;;;;;;;;;;;;;;;;;;5033297;28;20467;-67
2023/07/06 02:07:50;;;;;;;;;;;;;;;;;;5033171;28;19982;-67
2023/07/06 02:10:16;;;;;;;;;;;;;;;;;;5033790;28;20423;-67
2023/07/06 02:12:47;;;;;;;;;;;;;;;;;;5033971;28;19962;-67
2023/07/06 02:15:13;;;;;;;;;;;;;;;;;;5035792;28;19955;-67
2023/07/06 02:17:39;;;;;;;;;;;;;;;;;;5036851;28;19965;-67
2023/07/06 02:20:05;;;;;;;;;;;;;;;;;;5036769;28;20374;-67
2023/07/06 02:22:32;;;;;;;;;;;;;;;;;;5036740;28;19977;-67
2023/07/06 02:24:59;;;;;;;;;;;;;;;;;;5037293;28;19953;-67
2023/07/06 02:27:25;;;;;;;;;;;;;;;;;;5036601;28;19981;-67
2023/07/06 02:29:51;;;;;;;;;;;;;;;;;;5037193;28;20335;-67
2023/07/06 02:32:16;;;;;;;;;;;;;;;;;;5036865;28;20008;-67
2023/07/06 02:34:43;;;;;;;;;;;;;;;;;;5036788;28;20332;-67
2023/07/06 02:37:10;;;;;;;;;;;;;;;;;;5036440;28;19962;-67
2023/07/06 02:39:35;;;;;;;;;;;;;;;;;;5036449;28;19956;-67
2023/07/06 02:42:01;;;;;;;;;;;;;;;;;;5036390;28;20336;-67
2023/07/06 02:44:27;;;;;;;;;;;;;;;;;;5036358;28;19955;-67
2023/07/06 02:46:54;;;;;;;;;;;;;;;;;;5036304;28;19975;-68
2023/07/06 02:49:20;;;;;;;;;;;;;;;;;;5036894;28;20395;-68
2023/07/06 02:51:46;;;;;;;;;;;;;;;;;;5036256;28;19970;-67
2023/07/06 02:54:15;;;;;;;;;;;;;;;;;;5036489;28;19954;-67
2023/07/06 02:56:41;;;;;;;;;;;;;;;;;;5036140;28;20005;-68
2023/07/06 02:59:08;;;;;;;;;;;;;;;;;;5036122;28;19961;-67
2023/07/06 03:01:34;;;;;;;;;;;;;;;;;;5036200;28;19970;-67
2023/07/06 03:04:00;;;;;;;;;;;;;;;;;;5036102;28;19967;-67
2023/07/06 03:06:27;;;;;;;;;;;;;;;;;;5036516;28;19979;-67
2023/07/06 03:08:54;;;;;;;;;;;;;;;;;;5035956;28;19962;-67
2023/07/06 03:11:20;;;;;;;;;;;;;;;;;;5051251;28;19959;-68
2023/07/06 03:13:46;;;;;;;;;;;;;;;;;;5036629;28;19962;-67
2023/07/06 03:16:11;;;;;;;;;;;;;;;;;;5035811;28;20006;-68
2023/07/06 03:18:39;;;;;;;;;;;;;;;;;;5035754;28;19990;-67
2023/07/06 03:21:05;;;;;;;;;;;;;;;;;;5035992;28;19955;-68
2023/07/06 03:23:31;;;;;;;;;;;;;;;;;;5035693;28;19961;-67
2023/07/06 03:25:58;;;;;;;;;;;;;;;;;;5035158;28;20446;-67
2023/07/06 03:28:23;;;;;;;;;;;;;;;;;;5035863;28;19955;-67
2023/07/06 03:30:49;;;;;;;;;;;;;;;;;;5035507;28;20037;-67
2023/07/06 03:33:15;;;;;;;;;;;;;;;;;;5036015;28;20342;-67
2023/07/06 03:35:41;;;;;;;;;;;;;;;;;;5035702;28;19954;-67
2023/07/06 03:38:07;;;;;;;;;;;;;;;;;;5035373;28;20460;-67
2023/07/06 03:40:33;;;;;;;;;;;;;;;;;;5035908;28;19993;-68
2023/07/06 03:43:01;;;;;;;;;;;;;;;;;;5035255;28;19958;-67
2023/07/06 03:45:30;;;;;;;;;;;;;;;;;;5050602;28;19964;-68
2023/07/06 03:47:55;;;;;;;;;;;;;;;;;;5035204;28;19959;-67
2023/07/06 03:50:21;;;;;;;;;;;;;;;;;;5035394;28;19955;-67
2023/07/06 03:52:47;;;;;;;;;;;;;;;;;;5035101;28;19954;-67
2023/07/06 03:55:14;;;;;;;;;;;;;;;;;;5035349;28;19955;-67
2023/07/06 03:57:40;;;;;;;;;;;;;;;;;;5035003;28;20450;-67
2023/07/06 04:00:13;;;;;;;;;;;;;;;;;;5035182;28;19981;-67
2023/07/06 04:02:39;;;;;;;;;;;;;;;;;;5050155;28;19978;-68
2023/07/06 04:05:04;;;;;;;;;;;;;;;;;;5034806;28;19990;-67
2023/07/06 04:07:30;;;;;;;;;;;;;;;;;;5034732;28;19985;-67
2023/07/06 04:09:56;;;;;;;;;;;;;;;;;;5035023;28;19955;-67
2023/07/06 04:12:22;;;;;;;;;;;;;;;;;;5035505;28;19955;-68
2023/07/06 04:14:48;;;;;;;;;;;;;;;;;;5034617;28;19954;-67
2023/07/06 04:17:16;;;;;;;;;;;;;;;;;;5034627;28;19955;-67
2023/07/06 04:19:42;;;;;;;;;;;;;;;;;;5034590;28;19959;-67
2023/07/06 04:22:08;;;;;;;;;;;;;;;;;;5034808;28;19955;-67
2023/07/06 04:24:34;;;;;;;;;;;;;;;;;;5035015;28;20403;-67
2023/07/06 04:27:00;;;;;;;;;;;;;;;;;;5034360;28;19975;-67
2023/07/06 04:29:28;;;;;;;;;;;;;;;;;;5034424;28;19978;-68
2023/07/06 04:31:55;;;;;;;;;;;;;;;;;;5034882;28;20327;-67
2023/07/06 04:34:21;;;;;;;;;;;;;;;;;;5034558;28;19965;-67
2023/07/06 04:36:47;;;;;;;;;;;;;;;;;;5034357;28;19955;-67
2023/07/06 04:39:13;;;;;;;;;;;;;;;;;;5034234;28;19961;-67
2023/07/06 04:41:39;;;;;;;;;;;;;;;;;;5034184;28;20019;-67
2023/07/06 04:44:05;;;;;;;;;;;;;;;;;;5034100;28;19961;-67
2023/07/06 04:46:31;;;;;;;;;;;;;;;;;;5034365;28;19975;-67
2023/07/06 04:48:57;;;;;;;;;;;;;;;;;;5034326;28;20012;-68
2023/07/06 04:51:25;;;;;;;;;;;;;;;;;;5034042;28;19962;-67
2023/07/06 04:53:51;;;;;;;;;;;;;;;;;;5034303;28;19962;-67
2023/07/06 04:56:17;;;;;;;;;;;;;;;;;;5033960;28;19955;-67
2023/07/06 04:58:45;;;;;;;;;;;;;;;;;;5034191;28;19955;-68
2023/07/06 05:01:10;;;;;;;;;;;;;;;;;;5033801;28;20422;-67
2023/07/06 05:03:36;;;;;;;;;;;;;;;;;;5033874;28;19963;-67
2023/07/06 05:06:03;;;;;;;;;;;;;;;;;;5033382;28;20040;-67
2023/07/06 05:08:29;;;;;;;;;;;;;;;;;;5034096;28;19963;-67
2023/07/06 05:10:55;;;;;;;;;;;;;;;;;;5033781;28;19955;-67
2023/07/06 05:13:21;;;;;;;;;;;;;;;;;;5034275;28;20339;-67
2023/07/06 05:15:48;;;;;;;;;;;;;;;;;;5033773;28;20051;-67
2023/07/06 05:18:14;;;;;;;;;;;;;;;;;;5033728;28;20013;-67
2023/07/06 05:20:40;;;;;;;;;;;;;;;;;;5033985;28;19959;-67
2023/07/06 05:23:08;;;;;;;;;;;;;;;;;;5033655;28;20372;-67
2023/07/06 05:25:34;;;;;;;;;;;;;;;;;;5033565;28;20000;-67
2023/07/06 05:28:00;;;;;;;;;;;;;;;;;;5033649;28;19959;-67
2023/07/06 05:30:25;;;;;;;;;;;;;;;;;;5033595;28;19990;-68
2023/07/06 05:32:51;;;;;;;;;;;;;;;;;;5033796;28;19955;-67
2023/07/06 05:35:17;;;;;;;;;;;;;;;;;;5033834;28;20430;-67
2023/07/06 05:37:43;;;;;;;;;;;;;;;;;;5033531;28;20044;-67
2023/07/06 05:40:09;;;;;;;;;;;;;;;;;;5033744;28;20401;-67
2023/07/06 05:42:35;;;;;;;;;;;;;;;;;;5033474;28;19955;-67
2023/07/06 05:45:01;;;;;;;;;;;;;;;;;;5033703;28;20033;-67
2023/07/06 05:47:27;;;;;;;;;;;;;;;;;;5033625;28;20491;-67
2023/07/06 05:49:53;;;;;;;;;;;;;;;;;;5035912;28;20309;-68
2023/07/06 05:52:19;;;;;;;;;;;;;;;;;;5037335;28;19959;-68
2023/07/06 05:54:45;;;;;;;;;;;;;;;;;;5037864;28;19962;-67
2023/07/06 05:57:11;;;;;;;;;;;;;;;;;;5037243;28;19962;-68
2023/07/06 05:59:41;;;;;;;;;;;;;;;;;;5037250;28;19988;-68
2023/07/06 06:02:07;;;;;;;;;;;;;;;;;;5037234;28;20062;-68
2023/07/06 06:04:33;;;;;;;;;;;;;;;;;;5036931;28;20022;-68
2023/07/06 06:06:59;;;;;;;;;;;;;;;;;;5037223;28;20478;-68
2023/07/06 06:09:25;;;;;;;;;;;;;;;;;;5036942;28;20379;-68
2023/07/06 06:11:51;;;;;;;;;;;;;;;;;;5036991;28;19955;-67
2023/07/06 06:14:17;;;;;;;;;;;;;;;;;;5037422;28;20067;-67
2023/07/06 06:16:43;;;;;;;;;;;;;;;;;;5037188;28;19955;-67
2023/07/06 06:19:08;;;;;;;;;;;;;;;;;;5036866;28;19959;-68
2023/07/06 06:21:34;;;;;;;;;;;;;;;;;;5036859;28;20001;-68
2023/07/06 06:24:01;;;;;;;;;;;;;;;;;;5037025;28;19954;-68
2023/07/06 06:26:26;;;;;;;;;;;;;;;;;;5036667;28;19974;-68
2023/07/06 06:28:52;;;;;;;;;;;;;;;;;;5036667;28;19960;-68
2023/07/06 06:31:18;;;;;;;;;;;;;;;;;;5036883;28;19966;-68
2023/07/06 06:33:47;;;;;;;;;;;;;;;;;;5036619;28;19970;-68
2023/07/06 06:36:13;;;;;;;;;;;;;;;;;;5036565;28;19955;-68
2023/07/06 06:38:39;;;;;;;;;;;;;;;;;;5036469;28;19959;-68
2023/07/06 06:41:10;;;;;;;;;;;;;;;;;;5036516;28;19997;-68
2023/07/06 06:43:37;;;;;;;;;;;;;;;;;;5036999;28;19954;-68
2023/07/06 06:46:02;;;;;;;;;;;;;;;;;;5036558;28;19979;-68
2023/07/06 06:48:28;;;;;;;;;;;;;;;;;;5036299;28;19964;-69
2023/07/06 06:50:55;;;;;;;;;;;;;;;;;;5036564;28;19955;-69
2023/07/06 06:53:22;;;;;;;;;;;;;;;;;;5036229;28;20041;-69
2023/07/06 06:55:48;;;;;;;;;;;;;;;;;;5035480;28;20051;-70
2023/07/06 06:58:15;;;;;;;;;;;;;;;;;;5035848;28;20466;-69
2023/07/06 07:00:41;;;;;;;;;;;;;;;;;;5034841;28;20049;-69
2023/07/06 07:03:11;;;;;;;;;;;;;;;;;;5034570;28;19982;-68
2023/07/06 07:05:37;;;;;;;;;;;;;;;;;;5049712;28;19994;-69
2023/07/06 07:08:03;;;;;;;;;;;;;;;;;;5035484;28;20404;-69
2023/07/06 07:10:29;;;;;;;;;;;;;;;;;;5035947;28;19983;-69
2023/07/06 07:12:55;;;;;;;;;;;;;;;;;;5035698;28;20390;-68
2023/07/06 07:15:21;;;;;;;;;;;;;;;;;;5035632;28;20009;-71
2023/07/06 07:17:46;;;;;;;;;;;;;;;;;;5035891;28;20042;-69
2023/07/06 07:20:13;;;;;;;;;;;;;;;;;;5017751;28;19959;-69
2023/07/06 07:22:39;;;;;;;;;;;;;;;;;;5036226;28;19959;-69
2023/07/06 07:25:05;;;;;;;;;;;;;;;;;;5035180;28;19961;-71
2023/07/06 07:27:34;;;;;;;;;;;;;;;;;;5035381;28;20002;-69
2023/07/06 07:30:00;;;;;;;;;;;;;;;;;;5036192;28;19955;-73
2023/07/06 07:32:28;;;;;;;;;;;;;;;;;;5035632;28;19958;-71
2023/07/06 07:34:54;;;;;;;;;;;;;;;;;;5034751;28;20420;-73
2023/07/06 07:37:21;;;;;;;;;;;;;;;;;;5035847;28;19964;-75
2023/07/06 07:39:48;;;;;;;;;;;;;;;;;;5035224;28;20430;-75
2023/07/06 07:42:14;;;;;;;;;;;;;;;;;;5035009;28;19969;-74
2023/07/06 07:44:40;;;;;;;;;;;;;;;;;;5034668;28;20042;-76
2023/07/06 07:47:06;;;;;;;;;;;;;;;;;;5035106;28;19985;-72
2023/07/06 07:49:32;;;;;;;;;;;;;;;;;;5034958;28;19965;-70
2023/07/06 07:51:58;;;;;;;;;;;;;;;;;;5034490;28;19958;-70
2023/07/06 07:54:23;;;;;;;;;;;;;;;;;;5035204;28;20058;-69
2023/07/06 07:56:53;;;;;;;;;;;;;;;;;;5034435;28;19965;-71
2023/07/06 07:59:19;;;;;;;;;;;;;;;;;;5034538;28;20069;-74
2023/07/06 08:01:46;;;;;;;;;;;;;;;;;;5034202;28;20043;-71
2023/07/06 08:04:14;;;;;;;;;;;;;;;;;;5033831;28;20001;-73
2023/07/06 08:06:40;;;;;;;;;;;;;;;;;;5033705;28;19976;-71
2023/07/06 08:09:07;;;;;;;;;;;;;;;;;;5034699;28;19966;-71
2023/07/06 08:11:33;;;;;;;;;;;;;;;;;;5034554;28;19966;-71
2023/07/06 08:13:59;;;;;;;;;;;;;;;;;;5034274;28;19963;-73
2023/07/06 08:16:25;;;;;;;;;;;;;;;;;;5033033;28;20003;-71
2023/07/06 08:18:51;;;;;;;;;;;;;;;;;;5033625;28;20339;-73
2023/07/06 08:21:17;;;;;;;;;;;;;;;;;;5034052;28;19962;-69
2023/07/06 08:23:43;;;;;;;;;;;;;;;;;;5033924;28;20012;-70
2023/07/06 08:26:10;;;;;;;;;;;;;;;;;;5033474;28;20028;-71
2023/07/06 08:28:36;;;;;;;;;;;;;;;;;;5033895;28;19961;-71
2023/07/06 08:31:03;;;;;;;;;;;;;;;;;;5034013;28;19967;-72
2023/07/06 08:33:32;;;;;;;;;;;;;;;;;;5034301;28;19961;-73
2023/07/06 08:35:57;;;;;;;;;;;;;;;;;;5033960;28;19997;-73
2023/07/06 08:38:23;;;;;;;;;;;;;;;;;;5034005;28;19999;-73
2023/07/06 08:40:52;;;;;;;;;;;;;;;;;;5033628;28;19965;-71
2023/07/06 08:43:18;;;;;;;;;;;;;;;;;;5045774;28;20045;-71
2023/07/06 08:45:44;;;;;;;;;;;;;;;;;;5032760;28;19966;-71
2023/07/06 08:48:10;;;;;;;;;;;;;;;;;;5033010;28;19967;-75
2023/07/06 08:50:36;;;;;;;;;;;;;;;;;;5033570;28;19958;-71
2023/07/06 08:53:05;;;;;;;;;;;;;;;;;;5033377;28;19985;-69
2023/07/06 08:55:31;;;;;;;;;;;;;;;;;;5033467;28;19961;-75
2023/07/06 08:57:57;;;;;;;;;;;;;;;;;;5034117;28;19955;-77
2023/07/06 09:00:24;;;;;;;;;;;;;;;;;;5031358;28;20011;-74
2023/07/06 09:02:50;;;;;;;;;;;;;;;;;;5033470;28;20452;-72
2023/07/06 09:05:16;;;;;;;;;;;;;;;;;;5033352;28;20033;-76
2023/07/06 09:07:42;;;;;;;;;;;;;;;;;;5031732;28;19989;-73
2023/07/06 09:10:08;;;;;;;;;;;;;;;;;;5032618;28;20334;-77
2023/07/06 09:12:36;;;;;;;;;;;;;;;;;;5033733;28;19955;-76
2023/07/06 09:15:03;;;;;;;;;;;;;;;;;;5038276;28;20332;-78
2023/07/06 09:17:29;;;;;;;;;;;;;;;;;;5027875;28;19968;-74
2023/07/06 09:19:56;;;;;;;;;;;;;;;;;;5033456;28;19959;-72
2023/07/06 09:22:22;;;;;;;;;;;;;;;;;;5032768;28;19970;-74
2023/07/06 09:24:48;;;;;;;;;;;;;;;;;;5032775;28;19998;-74
2023/07/06 09:27:14;;;;;;;;;;;;;;;;;;5034603;28;20064;-72
2023/07/06 09:29:41;;;;;;;;;;;;;;;;;;5019821;28;19955;-71
2023/07/06 09:32:07;;;;;;;;;;;;;;;;;;5033708;28;19962;-71
2023/07/06 09:34:33;;;;;;;;;;;;;;;;;;5033276;28;20450;-75
2023/07/06 09:37:02;;;;;;;;;;;;;;;;;;5032730;28;19975;-72
2023/07/06 09:39:28;;;;;;;;;;;;;;;;;;5033189;28;19970;-72
2023/07/06 09:41:54;;;;;;;;;;;;;;;;;;5033927;28;19998;-74
2023/07/06 09:44:20;;;;;;;;;;;;;;;;;;5033033;28;19954;-74
2023/07/06 09:46:46;;;;;;;;;;;;;;;;;;5033073;28;20315;-72
2023/07/06 09:49:12;;;;;;;;;;;;;;;;;;5048231;28;19959;-70
2023/07/06 09:51:38;;;;;;;;;;;;;;;;;;5032450;28;20354;-74
2023/07/06 09:54:04;;;;;;;;;;;;;;;;;;5032462;28;19964;-72
2023/07/06 09:56:29;;;;;;;;;;;;;;;;;;5033442;28;20325;-72
2023/07/06 09:58:55;;;;;;;;;;;;;;;;;;5033182;28;19967;-72
2023/07/06 10:01:21;;;;;;;;;;;;;;;;;;5032966;28;19963;-67
2023/07/06 10:03:47;;;;;;;;;;;;;;;;;;5033423;28;20324;-67
2023/07/06 10:06:13;;;;;;;;;;;;;;;;;;5032478;28;20027;-67
2023/07/06 10:08:39;;;;;;;;;;;;;;;;;;5033557;28;19968;-68
2023/07/06 10:11:05;;;;;;;;;;;;;;;;;;5032322;28;20333;-68
2023/07/06 10:13:31;;;;;;;;;;;;;;;;;;5033905;28;20017;-71
2023/07/06 10:15:57;;;;;;;;;;;;;;;;;;5032844;28;20424;-75
2023/07/06 10:18:23;;;;;;;;;;;;;;;;;;5032264;28;20004;-72
2023/07/06 10:20:49;;;;;;;;;;;;;;;;;;5032782;28;19962;-74
2023/07/06 10:23:15;;;;;;;;;;;;;;;;;;5032634;28;19969;-70
2023/07/06 10:25:41;;;;;;;;;;;;;;;;;;5033022;28;20014;-71
2023/07/06 10:28:06;;;;;;;;;;;;;;;;;;5032410;28;20014;-72
2023/07/06 10:30:32;;;;;;;;;;;;;;;;;;5031149;28;20017;-70
2023/07/06 10:32:58;;;;;;;;;;;;;;;;;;5032729;28;20006;-77
2023/07/06 10:35:25;;;;;;;;;;;;;;;;;;5032139;28;20346;-73
2023/07/06 10:37:51;;;;;;;;;;;;;;;;;;5035675;28;19998;-72
2023/07/06 10:40:19;;;;;;;;;;;;;;;;;;5034691;28;19995;-72
2023/07/06 10:42:48;;;;;;;;;;;;;;;;;;5033264;28;19963;-72
2023/07/06 10:45:15;;;;;;;;;;;;;;;;;;5033493;28;20050;-72
2023/07/06 10:47:41;;;;;;;;;;;;;;;;;;5034198;28;19976;-73
2023/07/06 10:50:07;;;;;;;;;;;;;;;;;;5034231;28;19955;-71
2023/07/06 10:52:33;;;;;;;;;;;;;;;;;;5034314;28;20018;-72
2023/07/06 10:54:59;;;;;;;;;;;;;;;;;;5036500;28;19961;-72
2023/07/06 10:57:25;;;;;;;;;;;;;;;;;;5036205;28;19954;-73
2023/07/06 10:59:52;;;;;;;;;;;;;;;;;;5036130;28;19962;-71
2023/07/06 11:02:17;;;;;;;;;;;;;;;;;;5036068;28;19971;-71
2023/07/06 11:04:46;;;;;;;;;;;;;;;;;;5036040;28;19992;-72
2023/07/06 11:07:13;;;;;;;;;;;;;;;;;;5036513;28;19984;-71
2023/07/06 11:09:39;;;;;;;;;;;;;;;;;;5051314;28;19960;-72
2023/07/06 11:12:05;;;;;;;;;;;;;;;;;;5036221;28;20003;-71
2023/07/06 11:14:35;;;;;;;;;;;;;;;;;;5036380;28;19953;-71
2023/07/06 11:17:02;;;;;;;;;;;;;;;;;;5036409;28;20024;-71
2023/07/06 11:19:28;;;;;;;;;;;;;;;;;;5035817;28;19955;-71
2023/07/06 11:21:54;;;;;;;;;;;;;;;;;;5036268;28;20307;-73
2023/07/06 11:24:21;;;;;;;;;;;;;;;;;;5035667;28;19966;-72
2023/07/06 11:26:50;;;;;;;;;;;;;;;;;;5035519;28;20001;-73
2023/07/06 11:29:16;;;;;;;;;;;;;;;;;;5035581;28;20423;-71
2023/07/06 11:31:43;;;;;;;;;;;;;;;;;;5050864;28;20093;-71
2023/07/06 11:34:09;;;;;;;;;;;;;;;;;;5035479;28;20434;-73
2023/07/06 11:36:39;;;;;;;;;;;;;;;;;;5036004;28;19955;-71
2023/07/06 11:39:05;;;;;;;;;;;;;;;;;;5050765;28;19970;-73
2023/07/06 11:41:31;;;;;;;;;;;;;;;;;;5035365;28;19955;-72
2023/07/06 11:43:57;;;;;;;;;;;;;;;;;;5035584;28;19963;-73
2023/07/06 11:46:23;;;;;;;;;;;;;;;;;;5033403;28;19982;-80
2023/07/06 11:48:49;;;;;;;;;;;;;;;;;;5033255;28;19958;-80
2023/07/06 11:51:15;;;;;;;;;;;;;;;;;;5034521;28;19959;-72
2023/07/06 11:53:53;;;;;;;;;;;;;;;;;;5037055;28;20494;-77
2023/07/06 11:56:20;;;;;;;;;;;;;;;;;;5049447;28;20024;-69
2023/07/06 11:58:57;;;;;;;;;;;;;;;;;;5033924;28;20022;-69
2023/07/06 12:04:04;;;;;;;;;;;;;;;;;;5035032;28;20038;-70
2023/07/06 12:06:33;;;;;;;;;;;;;;;;;;5035406;28;20051;-69
2023/07/06 12:08:59;;;;;;;;;;;;;;;;;;5035657;28;19962;-69
2023/07/06 12:11:25;;;;;;;;;;;;;;;;;;5034773;28;20044;-69
2023/07/06 12:13:52;;;;;;;;;;;;;;;;;;5035494;28;19997;-69
2023/07/06 12:16:18;;;;;;;;;;;;;;;;;;5050074;28;20347;-69
2023/07/06 12:18:47;;;;;;;;;;;;;;;;;;5035200;28;19955;-69
2023/07/06 12:21:13;;;;;;;;;;;;;;;;;;5034649;28;19954;-69
2023/07/06 12:23:38;;;;;;;;;;;;;;;;;;5034592;28;20025;-69
2023/07/06 12:26:07;;;;;;;;;;;;;;;;;;5034494;28;19956;-69
2023/07/06 12:28:33;;;;;;;;;;;;;;;;;;5034767;28;20414;-69
2023/07/06 12:30:59;;;;;;;;;;;;;;;;;;5034482;28;20060;-70
2023/07/06 12:33:28;;;;;;;;;;;;;;;;;;5034731;28;20400;-69
2023/07/06 12:48:35;;;;;;;;;;;;;;;;;;5132455;27;20072;-75
2023/07/06 12:51:03;;;;;;;;;;;;;;;;;;5131874;28;20446;-74
2023/07/06 12:53:29;;;;;;;;;;;;;;;;;;5132147;28;19953;-74
2023/07/06 12:55:55;;;;;;;;;;;;;;;;;;5131693;28;20489;-73
2023/07/06 12:58:21;;;;;;;;;;;;;;;;;;5131675;28;19953;-73
2023/07/06 13:00:48;;;;;;;;;;;;;;;;;;5132190;28;20352;-74
2023/07/06 13:03:13;;;;;;;;;;;;;;;;;;5131916;28;20474;-73
2023/07/06 13:05:40;;;;;;;;;;;;;;;;;;5131404;28;19990;-74
2023/07/06 13:08:08;;;;;;;;;;;;;;;;;;5131962;28;20044;-75
2023/07/06 13:10:36;;;;;;;;;;;;;;;;;;5131358;28;19962;-74
2023/07/06 13:13:02;;;;;;;;;;;;;;;;;;5131543;28;19953;-74
2023/07/06 13:15:28;;;;;;;;;;;;;;;;;;5131246;28;19996;-74
2023/07/06 13:17:54;;;;;;;;;;;;;;;;;;5131124;28;20017;-74
2023/07/06 13:20:20;;;;;;;;;;;;;;;;;;5131495;28;19953;-73
2023/07/06 13:22:45;;;;;;;;;;;;;;;;;;5131409;28;19959;-74
2023/07/06 13:25:11;;;;;;;;;;;;;;;;;;5131666;28;19960;-74
2023/07/06 13:27:37;;;;;;;;;;;;;;;;;;5131325;28;19976;-74
2023/07/06 13:30:05;;;;;;;;;;;;;;;;;;5131277;28;19961;-74
2023/07/06 13:32:31;;;;;;;;;;;;;;;;;;5130962;28;19954;-74
2023/07/06 13:34:58;;;;;;;;;;;;;;;;;;5131199;28;20006;-73
2023/07/06 13:37:24;;;;;;;;;;;;;;;;;;5130913;28;20430;-73
2023/07/06 13:39:49;;;;;;;;;;;;;;;;;;5116374;28;19976;-74
2023/07/06 13:42:16;;;;;;;;;;;;;;;;;;5110979;28;19955;-74
2023/07/06 13:44:42;;;;;;;;;;;;;;;;;;5110310;28;19954;-74
2023/07/06 13:47:08;;;;;;;;;;;;;;;;;;5109987;28;19989;-73
2023/07/06 13:49:34;;;;;;;;;;;;;;;;;;5096661;28;20042;-74
2023/07/06 13:52:00;;;;;;;;;;;;;;;;;;5096555;28;19986;-73
2023/07/06 13:54:26;;;;;;;;;;;;;;;;;;5096549;28;19962;-74
2023/07/06 13:56:52;;;;;;;;;;;;;;;;;;5096451;28;19979;-74
2023/07/06 13:59:19;;;;;;;;;;;;;;;;;;5097013;28;20364;-74
2023/07/06 14:01:47;;;;;;;;;;;;;;;;;;5096403;28;19954;-74
2023/07/06 14:04:14;;;;;;;;;;;;;;;;;;5096333;28;19953;-72
2023/07/06 14:06:40;;;;;;;;;;;;;;;;;;5096296;28;19954;-73
2023/07/06 14:09:06;;;;;;;;;;;;;;;;;;5096519;28;19955;-73
2023/07/06 14:11:31;;;;;;;;;;;;;;;;;;5096239;28;20045;-72
2023/07/06 14:13:59;;;;;;;;;;;;;;;;;;5096123;28;20013;-72
2023/07/06 14:16:25;;;;;;;;;;;;;;;;;;5096691;28;20326;-73
2023/07/06 14:18:53;;;;;;;;;;;;;;;;;;5096066;28;19954;-72
2023/07/06 14:21:19;;;;;;;;;;;;;;;;;;5096324;28;19958;-73
2023/07/06 14:23:45;;;;;;;;;;;;;;;;;;5096003;28;20044;-73
2023/07/06 14:26:11;;;;;;;;;;;;;;;;;;5095897;28;20054;-72
2023/07/06 14:28:37;;;;;;;;;;;;;;;;;;5095915;28;19955;-73
2023/07/06 14:31:06;;;;;;;;;;;;;;;;;;5095850;28;19954;-74
2023/07/06 14:33:32;;;;;;;;;;;;;;;;;;5095852;28;19954;-74
2023/07/06 14:35:58;;;;;;;;;;;;;;;;;;5095950;28;20001;-73
2023/07/06 14:38:24;;;;;;;;;;;;;;;;;;5095626;28;19966;-73
2023/07/06 14:40:50;;;;;;;;;;;;;;;;;;5096153;28;19957;-72
2023/07/06 14:43:16;;;;;;;;;;;;;;;;;;5095919;28;19954;-72
2023/07/06 14:45:44;;;;;;;;;;;;;;;;;;5095521;28;19955;-72
2023/07/06 14:48:10;;;;;;;;;;;;;;;;;;5095145;28;19991;-72
2023/07/06 14:50:36;;;;;;;;;;;;;;;;;;5095461;28;19962;-71
2023/07/06 15:14:30;;;;;;;;;;;;;;;;;;5111955;27;19971;-73
2023/07/06 15:16:56;;;;;;;;;;;;;;;;;;5111340;28;20060;-73
2023/07/06 15:19:22;;;;;;;;;;;;;;;;;;5111558;28;19955;-72
2023/07/06 15:21:48;;;;;;;;;;;;;;;;;;5111227;28;19967;-72
2023/07/06 15:24:14;;;;;;;;;;;;;;;;;;5111180;28;20001;-73
2023/07/06 15:26:40;;;;;;;;;;;;;;;;;;5111163;28;20402;-73
2023/07/06 15:29:06;;;;;;;;;;;;;;;;;;5111108;28;19995;-71
2023/07/06 15:31:32;;;;;;;;;;;;;;;;;;5111232;28;19955;-73
2023/07/06 15:33:58;;;;;;;;;;;;;;;;;;5110995;28;19981;-73
2023/07/06 15:36:24;;;;;;;;;;;;;;;;;;5111258;28;19961;-72
2023/07/06 15:38:50;;;;;;;;;;;;;;;;;;5110890;28;19954;-73
2023/07/06 15:41:15;;;;;;;;;;;;;;;;;;5111134;28;19955;-72
2023/07/06 15:43:42;;;;;;;;;;;;;;;;;;5111134;28;19961;-72
2023/07/06 15:46:08;;;;;;;;;;;;;;;;;;5110823;28;20500;-72
2023/07/06 15:48:34;;;;;;;;;;;;;;;;;;5111320;28;19953;-72
2023/07/06 15:51:00;;;;;;;;;;;;;;;;;;5110696;28;20054;-72
2023/07/06 15:53:26;;;;;;;;;;;;;;;;;;5110598;28;20449;-72
2023/07/06 15:55:52;;;;;;;;;;;;;;;;;;5110668;28;19961;-72
2023/07/06 15:58:18;;;;;;;;;;;;;;;;;;5111122;28;19959;-72
2023/07/06 16:00:43;;;;;;;;;;;;;;;;;;5110498;28;19955;-72
2023/07/06 16:03:09;;;;;;;;;;;;;;;;;;5111053;28;20046;-73
2023/07/06 16:05:35;;;;;;;;;;;;;;;;;;5110403;28;19977;-72
2023/07/06 16:08:01;;;;;;;;;;;;;;;;;;5110877;28;20468;-72
2023/07/06 16:10:27;;;;;;;;;;;;;;;;;;5110591;28;19961;-72
2023/07/06 16:12:53;;;;;;;;;;;;;;;;;;5109965;28;20332;-73
2023/07/06 16:15:19;;;;;;;;;;;;;;;;;;5096732;28;19959;-72
2023/07/06 16:17:45;;;;;;;;;;;;;;;;;;5096631;28;19955;-73
2023/07/06 16:20:11;;;;;;;;;;;;;;;;;;5096891;28;19962;-72
2023/07/06 16:22:37;;;;;;;;;;;;;;;;;;5096506;28;19955;-72
2023/07/06 16:25:03;;;;;;;;;;;;;;;;;;5096480;28;20404;-72
2023/07/06 16:27:29;;;;;;;;;;;;;;;;;;5096383;28;20005;-72
2023/07/06 16:29:55;;;;;;;;;;;;;;;;;;5096899;28;20316;-72
2023/07/06 16:32:20;;;;;;;;;;;;;;;;;;5096523;28;20080;-72
2023/07/06 16:34:46;;;;;;;;;;;;;;;;;;5096850;28;19958;-72
2023/07/06 16:37:12;;;;;;;;;;;;;;;;;;5096184;28;19959;-71
2023/07/06 16:39:38;;;;;;;;;;;;;;;;;;5096135;28;20006;-72
2023/07/06 16:42:04;;;;;;;;;;;;;;;;;;5096381;28;19956;-72
2023/07/06 16:44:30;;;;;;;;;;;;;;;;;;5096027;28;19955;-71
2023/07/06 16:46:56;;;;;;;;;;;;;;;;;;5096320;28;19954;-72
2023/07/06 16:49:22;;;;;;;;;;;;;;;;;;5096000;28;19977;-71
2023/07/06 16:51:48;;;;;;;;;;;;;;;;;;5095871;28;20053;-72
2023/07/06 16:54:14;;;;;;;;;;;;;;;;;;5096476;28;20371;-72
2023/07/06 16:56:40;;;;;;;;;;;;;;;;;;5095850;28;20430;-71
2023/07/06 16:59:06;;;;;;;;;;;;;;;;;;5095908;28;20369;-72
2023/07/06 17:01:31;;;;;;;;;;;;;;;;;;5095774;28;19955;-71
2023/07/06 17:03:57;;;;;;;;;;;;;;;;;;5095703;28;20003;-71
2023/07/06 17:06:23;;;;;;;;;;;;;;;;;;5096161;28;20448;-72
2023/07/06 17:08:49;;;;;;;;;;;;;;;;;;5096408;28;20041;-72
2023/07/06 17:11:15;;;;;;;;;;;;;;;;;;5095594;28;20327;-72
2023/07/06 17:13:41;;;;;;;;;;;;;;;;;;5095363;28;20454;-72
2023/07/06 17:16:07;;;;;;;;;;;;;;;;;;5096089;28;19970;-72